TimeEST,TemperatureF,Dew PointF,Humidity,Sea Level PressureIn,VisibilityMPH,Wind Direction,Wind SpeedMPH,Gust SpeedMPH,PrecipitationIn,Events,Conditions,WindDirDegrees,DateUTC
12:53 AM,54.0,48.0,80,30.34,10.0,East,6.9,-,N/A,,Clear,80,2012-03-06 05:53:00
1:53 AM,53.1,46.0,77,30.34,10.0,East,4.6,-,N/A,,Clear,90,2012-03-06 06:53:00
2:53 AM,52.0,46.0,80,30.32,10.0,East,4.6,-,N/A,,Clear,80,2012-03-06 07:53:00
3:53 AM,52.0,46.0,80,30.31,10.0,ENE,5.8,-,N/A,,Clear,60,2012-03-06 08:53:00
4:53 AM,53.1,46.9,80,30.32,10.0,NE,5.8,-,N/A,,Clear,50,2012-03-06 09:53:00
5:53 AM,53.1,46.9,80,30.34,10.0,NE,4.6,-,N/A,,Clear,50,2012-03-06 10:53:00
6:53 AM,53.1,48.0,83,30.35,10.0,NE,4.6,-,N/A,,Clear,50,2012-03-06 11:53:00
7:53 AM,57.9,51.1,78,30.37,10.0,NE,6.9,-,N/A,,Clear,40,2012-03-06 12:53:00
8:53 AM,64.0,50.0,60,30.38,10.0,ENE,10.4,-,N/A,,Clear,60,2012-03-06 13:53:00
9:53 AM,70.0,48.9,47,30.39,10.0,East,12.7,-,N/A,,Clear,100,2012-03-06 14:53:00
10:53 AM,75.9,45.0,33,30.38,10.0,East,12.7,21.9,N/A,,Clear,90,2012-03-06 15:53:00
11:53 AM,79.0,46.9,32,30.36,10.0,East,18.4,26.5,N/A,,Clear,90,2012-03-06 16:53:00
12:53 PM,79.0,48.0,34,30.34,10.0,ENE,15.0,27.6,N/A,,Partly Cloudy,70,2012-03-06 17:53:00
1:53 PM,81.0,48.0,31,30.31,10.0,East,15.0,-,N/A,,Partly Cloudy,100,2012-03-06 18:53:00
2:53 PM,81.0,48.0,31,30.29,10.0,ESE,18.4,25.3,N/A,,Partly Cloudy,110,2012-03-06 19:53:00
3:53 PM,80.1,51.1,36,30.29,10.0,East,19.6,27.6,N/A,,Partly Cloudy,90,2012-03-06 20:53:00
4:53 PM,77.0,53.1,43,30.29,10.0,East,20.7,28.8,N/A,,Scattered Clouds,80,2012-03-06 21:53:00
5:53 PM,75.0,53.1,46,30.30,10.0,East,18.4,27.6,N/A,,Clear,90,2012-03-06 22:53:00
6:53 PM,71.1,54.0,55,30.32,10.0,East,15.0,25.3,N/A,,Partly Cloudy,80,2012-03-06 23:53:00
7:53 PM,69.1,54.0,58,30.34,10.0,East,15.0,-,N/A,,Mostly Cloudy,80,2012-03-07 00:53:00
8:53 PM,66.9,55.0,66,30.36,10.0,East,11.5,20.7,N/A,,Partly Cloudy,80,2012-03-07 01:53:00
9:53 PM,66.2,55.4,68,30.37,10.0,ENE,11.5,-,N/A,,Mostly Cloudy,70,2012-03-07 02:53:00
10:53 PM,64.0,55.0,73,30.38,10.0,East,10.4,-,N/A,,Overcast,80,2012-03-07 03:53:00
11:53 PM,64.0,55.0,73,30.37,10.0,ENE,10.4,-,N/A,,Scattered Clouds,70,2012-03-07 04:53:00